!!! Benutzen Sie für Ihre Flugvorbereitung die offiziellen Quellen !!!

Metar:

EDQM 251550Z 24012KT CAVOK 21/09 Q1013

QNH: 1013
Temperatur: 21
Dew Point : 9

 

METAR (decoded)